createdAt,value
2018-03-03T00:00:18.323Z,44.30
2018-03-03T00:01:18.297Z,43.60
2018-03-03T00:02:18.270Z,43.80
2018-03-03T00:03:18.242Z,44.10
2018-03-03T00:04:18.216Z,44.20
2018-03-03T00:05:18.189Z,43.20
2018-03-03T00:06:18.163Z,44.80
2018-03-03T00:07:18.142Z,42.90
2018-03-03T00:08:18.113Z,43.00
2018-03-03T00:09:18.086Z,43.20
2018-03-03T00:10:18.056Z,44.20
2018-03-03T00:11:18.030Z,43.20
2018-03-03T00:12:18.004Z,44.60
2018-03-03T00:13:17.979Z,44.00
2018-03-03T00:14:17.951Z,43.40
2018-03-03T00:15:17.931Z,44.90
2018-03-03T00:16:17.900Z,45.60
2018-03-03T00:17:17.876Z,45.60
2018-03-03T00:18:17.848Z,43.70
2018-03-03T00:19:17.824Z,44.10
2018-03-03T00:20:17.794Z,44.80
2018-03-03T00:21:17.768Z,43.40
2018-03-03T00:22:17.739Z,45.10
2018-03-03T00:23:17.714Z,42.80
2018-03-03T00:24:17.687Z,44.30
2018-03-03T00:25:17.659Z,43.60
2018-03-03T00:26:17.637Z,43.80
2018-03-03T00:27:17.606Z,43.70
2018-03-03T00:28:17.579Z,44.70
2018-03-03T00:29:17.563Z,43.90
2018-03-03T00:30:17.525Z,42.80
2018-03-03T00:31:17.505Z,43.60
2018-03-03T00:32:17.471Z,44.30
2018-03-03T00:33:17.448Z,41.60
2018-03-03T00:34:17.427Z,44.90
2018-03-03T00:35:17.398Z,44.30
2018-03-03T00:36:17.372Z,42.90
2018-03-03T00:37:17.345Z,43.30
2018-03-03T00:38:17.317Z,43.30
2018-03-03T00:39:17.289Z,42.90
2018-03-03T00:40:17.272Z,44.10
2018-03-03T00:41:17.239Z,43.50
2018-03-03T00:42:17.215Z,43.20
2018-03-03T00:43:17.191Z,43.10
2018-03-03T00:44:17.155Z,43.70
2018-03-03T00:45:17.129Z,43.80
2018-03-03T00:46:17.107Z,44.80
2018-03-03T00:47:17.079Z,45.10
2018-03-03T00:48:17.056Z,44.00
2018-03-03T00:49:17.028Z,43.60
2018-03-03T00:50:16.995Z,44.20
2018-03-03T00:51:16.968Z,45.50
2018-03-03T00:52:16.948Z,44.80
2018-03-03T00:53:16.916Z,44.90
2018-03-03T00:54:16.894Z,43.90
2018-03-03T00:55:16.864Z,42.90
2018-03-03T00:56:16.838Z,44.10
2018-03-03T00:57:16.814Z,44.30
2018-03-03T00:58:16.782Z,45.30
2018-03-03T00:59:16.760Z,45.00
2018-03-03T01:00:16.730Z,46.40
2018-03-03T01:01:16.710Z,44.90
2018-03-03T01:02:16.682Z,44.50
2018-03-03T01:03:16.651Z,44.20
2018-03-03T01:04:16.627Z,44.60
2018-03-03T01:05:16.599Z,44.20
2018-03-03T01:06:16.570Z,43.80
2018-03-03T01:07:16.548Z,44.80
2018-03-03T01:08:16.521Z,44.00
2018-03-03T01:09:16.489Z,44.60
2018-03-03T01:10:16.471Z,43.90
2018-03-03T01:11:16.438Z,43.50
2018-03-03T01:12:16.410Z,46.10
2018-03-03T01:13:16.384Z,44.10
2018-03-03T01:14:16.359Z,45.70
2018-03-03T01:15:16.336Z,43.10
2018-03-03T01:16:16.307Z,43.00
2018-03-03T01:17:16.274Z,43.60
2018-03-03T01:18:16.250Z,44.40
2018-03-03T01:19:16.230Z,46.00
2018-03-03T01:20:16.196Z,46.40
2018-03-03T01:21:16.167Z,45.70
2018-03-03T01:22:16.139Z,43.50
2018-03-03T01:23:16.126Z,45.80
2018-03-03T01:24:16.084Z,43.30
2018-03-03T01:25:16.058Z,45.00
2018-03-03T01:26:16.037Z,45.90
2018-03-03T01:27:16.004Z,44.70
2018-03-03T01:28:15.978Z,44.10
2018-03-03T01:29:15.955Z,44.30
2018-03-03T01:30:15.925Z,45.10
2018-03-03T01:31:15.899Z,45.10
2018-03-03T01:32:15.869Z,44.30
2018-03-03T01:33:15.842Z,46.50
2018-03-03T01:34:15.813Z,44.50
2018-03-03T01:35:15.790Z,45.20
2018-03-03T01:36:15.761Z,44.30
2018-03-03T01:37:15.736Z,45.50
2018-03-03T01:38:15.709Z,44.40
2018-03-03T01:39:15.681Z,45.40
2018-03-03T01:40:15.656Z,45.00
2018-03-03T01:41:15.627Z,45.60
2018-03-03T01:42:15.602Z,47.00
2018-03-03T01:43:15.582Z,45.10
2018-03-03T01:44:15.550Z,44.50
2018-03-03T01:45:15.520Z,44.10
2018-03-03T01:46:15.498Z,45.10
2018-03-03T01:47:15.463Z,43.70
2018-03-03T01:48:15.440Z,45.20
2018-03-03T01:49:15.412Z,43.90
2018-03-03T01:50:15.384Z,46.40
2018-03-03T01:51:15.355Z,46.00
2018-03-03T01:52:15.330Z,45.40
2018-03-03T01:53:15.315Z,43.70
2018-03-03T01:54:15.282Z,45.00
2018-03-03T01:55:15.246Z,45.30
2018-03-03T01:56:15.218Z,45.20
2018-03-03T01:57:15.198Z,46.20
2018-03-03T01:58:15.169Z,45.20
2018-03-03T01:59:15.140Z,43.80
2018-03-03T02:00:15.113Z,43.40
2018-03-03T02:01:15.085Z,44.50
2018-03-03T02:02:15.059Z,46.00
2018-03-03T02:03:15.031Z,44.70
2018-03-03T02:04:15.008Z,46.60
2018-03-03T02:05:14.976Z,43.70
2018-03-03T02:06:14.948Z,44.60
2018-03-03T02:07:14.927Z,45.20
2018-03-03T02:08:14.899Z,45.30
2018-03-03T02:09:14.868Z,44.60
2018-03-03T02:10:14.839Z,44.90
2018-03-03T02:11:14.818Z,44.50
2018-03-03T02:12:14.788Z,44.40
2018-03-03T02:13:14.763Z,44.40
2018-03-03T02:14:14.732Z,46.10
2018-03-03T02:15:14.711Z,46.70
2018-03-03T02:16:14.678Z,44.70
2018-03-03T02:17:14.651Z,45.50
2018-03-03T02:18:14.628Z,45.40
2018-03-03T02:19:14.603Z,45.90
2018-03-03T02:20:14.569Z,44.70
2018-03-03T02:21:14.547Z,45.50
2018-03-03T02:22:14.516Z,44.20
2018-03-03T02:23:14.491Z,45.40
2018-03-03T02:24:14.463Z,45.20
2018-03-03T02:25:14.439Z,44.00
2018-03-03T02:26:14.410Z,44.70
2018-03-03T02:27:14.382Z,47.30
2018-03-03T02:28:14.352Z,46.10
2018-03-03T02:29:14.333Z,46.90
2018-03-03T02:30:14.308Z,45.70
2018-03-03T02:31:14.271Z,44.90
2018-03-03T02:32:14.250Z,44.70
2018-03-03T02:33:14.223Z,46.40
2018-03-03T02:34:14.192Z,46.00
2018-03-03T02:35:14.161Z,45.70
2018-03-03T02:36:14.134Z,46.20
2018-03-03T02:37:14.108Z,46.60
2018-03-03T02:38:14.081Z,45.50
2018-03-03T02:39:14.057Z,46.20
2018-03-03T02:40:14.030Z,46.70
2018-03-03T02:41:14.003Z,45.60
2018-03-03T02:42:13.984Z,46.30
2018-03-03T02:43:13.948Z,47.10
2018-03-03T02:44:13.934Z,45.80
2018-03-03T02:45:13.898Z,46.40
2018-03-03T02:46:13.869Z,46.60
2018-03-03T02:47:13.841Z,45.80
2018-03-03T02:48:13.809Z,47.40
2018-03-03T02:49:13.782Z,44.60
2018-03-03T02:50:13.793Z,46.50
2018-03-03T02:51:13.728Z,46.00
2018-03-03T02:52:13.701Z,46.20
2018-03-03T02:53:13.673Z,45.40
2018-03-03T02:54:13.660Z,45.70
2018-03-03T02:55:13.618Z,45.10
2018-03-03T02:56:13.602Z,45.80
2018-03-03T02:57:13.568Z,46.30
2018-03-03T02:58:13.593Z,45.00
2018-03-03T02:59:13.510Z,46.30
2018-03-03T03:00:13.484Z,44.60
2018-03-03T03:01:13.463Z,46.60
2018-03-03T03:02:13.430Z,46.50
2018-03-03T03:03:13.414Z,46.10
2018-03-03T03:04:13.391Z,46.90
2018-03-03T03:05:13.353Z,45.80
2018-03-03T03:06:13.319Z,47.20
2018-03-03T03:07:13.301Z,45.50
2018-03-03T03:08:13.271Z,46.10
2018-03-03T03:09:13.239Z,45.90
2018-03-03T03:10:13.217Z,45.60
2018-03-03T03:11:13.188Z,45.70
2018-03-03T03:12:13.159Z,45.60
2018-03-03T03:13:13.141Z,45.30
2018-03-03T03:14:13.105Z,45.80
2018-03-03T03:15:13.079Z,46.80
2018-03-03T03:16:13.051Z,45.40
2018-03-03T03:17:13.032Z,46.00
2018-03-03T03:18:12.997Z,45.90
2018-03-03T03:19:12.969Z,45.80
2018-03-03T03:20:12.941Z,44.20
2018-03-03T03:21:12.916Z,45.90
2018-03-03T03:22:12.895Z,45.50
2018-03-03T03:23:12.863Z,46.00
2018-03-03T03:24:12.848Z,45.40
2018-03-03T03:25:12.808Z,45.60
2018-03-03T03:26:12.777Z,45.60
2018-03-03T03:27:12.760Z,46.70
2018-03-03T03:28:12.724Z,45.30
2018-03-03T03:29:12.702Z,45.20
2018-03-03T03:30:12.671Z,43.50
2018-03-03T03:31:12.701Z,46.00
2018-03-03T03:32:12.620Z,45.50
2018-03-03T03:33:12.594Z,46.10
2018-03-03T03:34:12.564Z,46.80
2018-03-03T03:35:12.539Z,47.00
2018-03-03T03:36:12.514Z,45.70
2018-03-03T03:37:12.479Z,46.80
2018-03-03T03:38:12.457Z,46.00
2018-03-03T03:39:12.430Z,46.40
2018-03-03T03:40:12.403Z,45.50
2018-03-03T03:41:12.372Z,47.40
2018-03-03T03:42:12.343Z,47.00
2018-03-03T03:43:12.320Z,44.70
2018-03-03T03:44:12.290Z,44.00
2018-03-03T03:45:12.266Z,46.60
2018-03-03T03:46:12.237Z,45.20
2018-03-03T03:47:12.210Z,46.40
2018-03-03T03:48:12.179Z,45.50
2018-03-03T03:49:12.154Z,46.30
2018-03-03T03:50:12.127Z,47.50
2018-03-03T03:51:12.101Z,47.80
2018-03-03T03:52:12.072Z,46.20
2018-03-03T03:53:12.048Z,46.90
2018-03-03T03:54:12.023Z,45.10
2018-03-03T03:55:11.991Z,45.60
2018-03-03T03:56:11.967Z,47.00
2018-03-03T03:57:11.934Z,45.00
2018-03-03T03:58:11.910Z,48.30
2018-03-03T03:59:11.882Z,47.20
2018-03-03T04:00:11.862Z,46.40
2018-03-03T04:01:11.829Z,46.30
2018-03-03T04:02:11.802Z,47.20
2018-03-03T04:03:11.780Z,46.70
2018-03-03T04:04:11.780Z,47.00
2018-03-03T04:05:11.716Z,47.00
2018-03-03T04:06:11.691Z,45.50
2018-03-03T04:07:11.670Z,47.10
2018-03-03T04:08:11.636Z,46.00
2018-03-03T04:09:11.610Z,45.70
2018-03-03T04:10:11.580Z,46.10
2018-03-03T04:11:11.554Z,48.10
2018-03-03T04:12:11.531Z,46.80
2018-03-03T04:13:11.503Z,46.50
2018-03-03T04:14:11.474Z,46.70
2018-03-03T04:15:11.449Z,47.60
2018-03-03T04:16:11.430Z,45.20
2018-03-03T04:17:11.392Z,46.80
2018-03-03T04:18:11.366Z,47.90
2018-03-03T04:19:11.343Z,47.60
2018-03-03T04:20:11.314Z,47.10
2018-03-03T04:21:11.286Z,47.00
2018-03-03T04:22:11.256Z,47.60
2018-03-03T04:23:11.233Z,46.70
2018-03-03T04:24:11.199Z,48.40
2018-03-03T04:25:11.177Z,47.10
2018-03-03T04:26:11.145Z,47.10
2018-03-03T04:27:11.119Z,47.80
2018-03-03T04:28:11.098Z,47.80
2018-03-03T04:29:11.071Z,48.50
2018-03-03T04:30:11.042Z,48.00
2018-03-03T04:31:11.010Z,47.10
2018-03-03T04:32:10.990Z,45.90
2018-03-03T04:33:10.961Z,47.30
2018-03-03T04:34:10.930Z,49.60
2018-03-03T04:35:10.922Z,47.30
2018-03-03T04:36:10.877Z,46.20
2018-03-03T04:37:10.849Z,47.40
2018-03-03T04:38:10.820Z,48.40
2018-03-03T04:39:10.795Z,45.60
2018-03-03T04:40:10.770Z,48.30
2018-03-03T04:41:10.742Z,46.90
2018-03-03T04:42:10.717Z,46.80
2018-03-03T04:43:10.691Z,47.30
2018-03-03T04:44:10.662Z,47.70
2018-03-03T04:45:10.631Z,47.50
2018-03-03T04:46:10.606Z,46.20
2018-03-03T04:47:10.583Z,47.60
2018-03-03T04:48:10.551Z,47.60
2018-03-03T04:49:10.528Z,48.70
2018-03-03T04:50:10.495Z,48.50
2018-03-03T04:51:10.468Z,48.10
2018-03-03T04:52:10.443Z,49.00
2018-03-03T04:53:10.415Z,49.10
2018-03-03T04:54:10.386Z,48.90
2018-03-03T04:55:10.357Z,47.90
2018-03-03T04:56:10.334Z,48.00
2018-03-03T04:57:10.306Z,49.70
2018-03-03T04:58:10.279Z,48.20
2018-03-03T04:59:10.250Z,47.80
2018-03-03T05:00:10.226Z,50.80
2018-03-03T05:01:10.200Z,47.40
2018-03-03T05:02:10.171Z,48.40
2018-03-03T05:03:10.145Z,48.40
2018-03-03T05:04:10.116Z,49.10
2018-03-03T05:05:10.089Z,47.50
2018-03-03T05:06:10.063Z,48.60
2018-03-03T05:07:10.035Z,48.00
2018-03-03T05:08:10.013Z,48.40
2018-03-03T05:09:09.987Z,48.60
2018-03-03T05:10:09.959Z,48.70
2018-03-03T05:11:09.931Z,49.50
2018-03-03T05:12:09.906Z,47.40
2018-03-03T05:13:09.876Z,48.80
2018-03-03T05:14:09.901Z,47.50
2018-03-03T05:15:09.819Z,48.80
2018-03-03T05:16:09.799Z,47.00
2018-03-03T05:17:09.766Z,49.30
2018-03-03T05:18:09.741Z,48.00
2018-03-03T05:19:09.765Z,47.80
2018-03-03T05:20:09.689Z,49.10
2018-03-03T05:21:09.665Z,48.10
2018-03-03T05:22:09.635Z,48.50
2018-03-03T05:23:09.670Z,48.70
2018-03-03T05:24:09.585Z,49.90
2018-03-03T05:25:09.564Z,51.00
2018-03-03T05:26:09.525Z,48.50
2018-03-03T05:27:09.502Z,48.40
2018-03-03T05:28:09.475Z,48.90
2018-03-03T05:29:09.451Z,49.90
2018-03-03T05:30:09.421Z,49.30
2018-03-03T05:31:09.399Z,47.90
2018-03-03T05:32:09.371Z,50.40
2018-03-03T05:33:09.340Z,49.10
2018-03-03T05:34:09.312Z,48.10
2018-03-03T05:35:09.287Z,49.40
2018-03-03T05:36:09.260Z,48.70
2018-03-03T05:37:09.229Z,50.70
2018-03-03T05:38:09.202Z,50.60
2018-03-03T05:39:09.179Z,50.00
2018-03-03T05:40:09.149Z,49.40
2018-03-03T05:41:09.127Z,48.80
2018-03-03T05:42:09.101Z,48.90
2018-03-03T05:43:09.070Z,50.00
2018-03-03T05:44:09.052Z,49.70
2018-03-03T05:45:09.020Z,50.30
2018-03-03T05:46:08.991Z,48.20
2018-03-03T05:47:08.963Z,50.80
2018-03-03T05:48:08.934Z,48.00
2018-03-03T05:49:08.913Z,50.60
2018-03-03T05:50:08.881Z,50.70
2018-03-03T05:51:08.854Z,51.70
2018-03-03T05:52:08.826Z,50.20
2018-03-03T05:53:08.810Z,50.80
2018-03-03T05:54:08.775Z,50.20
2018-03-03T05:55:08.749Z,50.00
2018-03-03T05:56:08.720Z,49.80
2018-03-03T05:57:08.701Z,48.50
2018-03-03T05:58:08.666Z,48.00
2018-03-03T05:59:08.646Z,50.50
2018-03-03T06:00:08.620Z,50.40
2018-03-03T06:01:08.588Z,51.10
2018-03-03T06:02:08.572Z,50.20
2018-03-03T06:03:08.530Z,49.20
2018-03-03T06:04:08.503Z,50.00
2018-03-03T06:05:08.481Z,47.30
2018-03-03T06:06:08.453Z,51.10
2018-03-03T06:07:08.420Z,50.90
2018-03-03T06:08:08.397Z,51.00
2018-03-03T06:09:08.369Z,51.70
2018-03-03T06:10:08.342Z,50.30
2018-03-03T06:11:08.313Z,48.90
2018-03-03T06:12:08.284Z,51.10
2018-03-03T06:13:08.261Z,50.10
2018-03-03T06:14:08.232Z,50.60
2018-03-03T06:15:08.206Z,50.90
2018-03-03T06:16:08.180Z,52.70
2018-03-03T06:17:08.152Z,50.70
2018-03-03T06:18:08.129Z,51.20
2018-03-03T06:19:08.100Z,51.20
2018-03-03T06:20:08.069Z,50.60
2018-03-03T06:21:08.043Z,50.40
2018-03-03T06:22:08.067Z,50.30
2018-03-03T06:23:08.026Z,50.60
2018-03-03T06:24:07.965Z,49.90
2018-03-03T06:25:07.934Z,51.20
2018-03-03T06:26:08.010Z,50.50
2018-03-03T06:27:07.879Z,49.90
2018-03-03T06:28:07.956Z,52.00
2018-03-03T06:29:07.830Z,52.20
2018-03-03T06:30:07.860Z,51.00
2018-03-03T06:31:07.774Z,51.00
2018-03-03T06:32:07.744Z,51.30
2018-03-03T06:33:07.720Z,52.10
2018-03-03T06:34:07.701Z,51.30
2018-03-03T06:35:07.669Z,51.60
2018-03-03T06:36:07.636Z,51.60
2018-03-03T06:37:07.610Z,50.30
2018-03-03T06:38:07.580Z,51.10
2018-03-03T06:39:07.560Z,51.80
2018-03-03T06:40:07.526Z,51.50
2018-03-03T06:41:07.511Z,52.20
2018-03-03T06:42:07.480Z,50.20
2018-03-03T06:43:07.448Z,51.90
2018-03-03T06:44:07.421Z,50.60
2018-03-03T06:45:07.396Z,51.80
2018-03-03T06:46:07.366Z,51.60
2018-03-03T06:47:07.350Z,52.00
2018-03-03T06:48:07.314Z,52.60
2018-03-03T06:49:07.288Z,51.10
2018-03-03T06:50:07.263Z,51.60
2018-03-03T06:51:07.237Z,51.10
2018-03-03T06:52:07.210Z,52.90
2018-03-03T06:53:07.187Z,51.20
2018-03-03T06:54:07.163Z,52.30
2018-03-03T06:55:07.131Z,53.30
2018-03-03T06:56:07.105Z,52.60
2018-03-03T06:57:07.076Z,54.00
2018-03-03T06:58:07.051Z,50.80
2018-03-03T06:59:07.032Z,53.30
2018-03-03T07:00:07.005Z,52.30
2018-03-03T07:01:06.981Z,54.00
2018-03-03T07:02:06.948Z,54.50
2018-03-03T07:03:06.915Z,52.80
2018-03-03T07:04:06.893Z,54.50
2018-03-03T07:05:06.870Z,52.10
2018-03-03T07:06:06.841Z,53.40
2018-03-03T07:07:06.821Z,52.80
2018-03-03T07:08:06.789Z,52.40
2018-03-03T07:09:06.765Z,52.60
2018-03-03T07:10:06.739Z,52.70
2018-03-03T07:11:06.723Z,53.90
2018-03-03T07:12:06.689Z,51.70
2018-03-03T07:13:06.660Z,54.50
2018-03-03T07:14:06.639Z,53.50
2018-03-03T07:15:06.611Z,53.20
2018-03-03T07:16:06.593Z,49.50
2018-03-03T07:17:06.560Z,52.00
2018-03-03T07:18:06.542Z,52.20
2018-03-03T07:19:06.510Z,54.80
2018-03-03T07:20:06.482Z,54.30
2018-03-03T07:21:06.459Z,52.70
2018-03-03T07:22:06.429Z,53.60
2018-03-03T07:23:06.406Z,54.30
2018-03-03T07:24:06.385Z,53.20
2018-03-03T07:25:06.410Z,54.60
2018-03-03T07:26:06.335Z,50.10
2018-03-03T07:27:06.326Z,53.80
2018-03-03T07:28:06.286Z,50.90
2018-03-03T07:29:06.264Z,50.60
2018-03-03T07:30:06.242Z,52.10
2018-03-03T07:31:06.221Z,52.80
2018-03-03T07:32:06.193Z,51.20
2018-03-03T07:33:06.167Z,52.10
2018-03-03T07:34:06.149Z,52.20
2018-03-03T07:35:06.123Z,51.50
2018-03-03T07:36:06.118Z,50.20
2018-03-03T07:37:06.079Z,52.20
2018-03-03T07:38:06.060Z,52.00
2018-03-03T07:39:06.033Z,52.50
2018-03-03T07:40:06.001Z,54.20
2018-03-03T07:41:05.980Z,52.40
2018-03-03T07:42:06.362Z,51.20
2018-03-03T07:43:05.943Z,51.50
2018-03-03T07:44:05.909Z,53.50
2018-03-03T07:45:05.890Z,50.20
2018-03-03T07:46:05.874Z,52.90
2018-03-03T07:47:05.842Z,52.20
2018-03-03T07:48:05.829Z,51.80
2018-03-03T07:49:05.803Z,52.70
2018-03-03T07:50:05.788Z,52.30
2018-03-03T07:51:05.760Z,52.70
2018-03-03T07:52:05.739Z,53.50
2018-03-03T07:53:05.719Z,57.90
2018-03-03T07:54:05.698Z,52.90
2018-03-03T07:55:05.677Z,56.70
2018-03-03T07:56:05.658Z,54.30
2018-03-03T07:57:05.640Z,53.60
2018-03-03T07:58:05.624Z,52.60
2018-03-03T07:59:05.606Z,53.40
2018-03-03T08:00:05.582Z,53.30
2018-03-03T08:01:05.566Z,54.50
2018-03-03T08:02:05.543Z,52.50
2018-03-03T08:03:05.527Z,53.20
2018-03-03T08:04:05.509Z,52.50
2018-03-03T08:05:05.492Z,53.60
2018-03-03T08:06:05.483Z,52.20
2018-03-03T08:07:05.458Z,54.10
2018-03-03T08:08:05.441Z,52.00
2018-03-03T08:09:05.424Z,52.60
2018-03-03T08:10:05.410Z,51.70
2018-03-03T08:11:05.386Z,52.70
2018-03-03T08:12:05.380Z,53.00
2018-03-03T08:13:05.357Z,52.70
2018-03-03T08:14:05.337Z,52.80
2018-03-03T08:15:05.321Z,53.20
2018-03-03T08:16:05.308Z,54.20
2018-03-03T08:17:05.285Z,52.90
2018-03-03T08:18:05.270Z,52.30
2018-03-03T08:19:05.258Z,54.90
2018-03-03T08:20:05.235Z,53.70
2018-03-03T08:21:05.220Z,53.80
2018-03-03T08:22:05.203Z,53.00
2018-03-03T08:23:05.187Z,52.40
2018-03-03T08:24:05.176Z,52.20
2018-03-03T08:25:05.259Z,53.40
2018-03-03T08:26:05.140Z,53.30
2018-03-03T08:27:05.169Z,52.20
2018-03-03T08:28:05.107Z,52.00
2018-03-03T08:29:05.100Z,51.30
2018-03-03T08:30:05.079Z,51.30
2018-03-03T08:31:05.070Z,52.80
2018-03-03T08:32:05.046Z,50.40
2018-03-03T08:33:05.070Z,53.50
2018-03-03T08:34:05.020Z,52.60
2018-03-03T08:35:05.060Z,51.70
2018-03-03T08:36:04.988Z,52.90
2018-03-03T08:37:04.980Z,50.10
2018-03-03T08:38:04.964Z,52.30
2018-03-03T08:39:04.999Z,53.50
2018-03-03T08:40:04.937Z,52.40
2018-03-03T08:41:04.927Z,52.60
2018-03-03T08:42:04.910Z,51.20
2018-03-03T08:43:04.901Z,52.10
2018-03-03T08:44:04.881Z,50.60
2018-03-03T08:45:04.922Z,52.60
2018-03-03T08:46:04.861Z,54.10
2018-03-03T08:47:04.840Z,51.80
2018-03-03T08:48:04.829Z,53.30
2018-03-03T08:49:04.812Z,52.00
2018-03-03T08:50:04.797Z,52.70
2018-03-03T08:51:04.790Z,52.90
2018-03-03T08:52:04.772Z,52.70
2018-03-03T08:53:04.759Z,54.10
2018-03-03T08:54:04.751Z,52.40
2018-03-03T08:55:04.731Z,51.50
2018-03-03T08:56:04.718Z,52.80
2018-03-03T08:57:04.708Z,51.70
2018-03-03T08:58:04.692Z,54.70
2018-03-03T08:59:04.683Z,53.40
2018-03-03T09:00:04.670Z,54.40
2018-03-03T09:01:04.647Z,53.90
2018-03-03T09:02:04.633Z,52.70
2018-03-03T09:03:04.622Z,53.20
2018-03-03T09:04:04.609Z,57.50
2018-03-03T09:05:04.607Z,53.80
2018-03-03T09:06:04.589Z,53.90
2018-03-03T09:07:04.568Z,53.70
2018-03-03T09:08:04.557Z,53.90
2018-03-03T09:09:04.541Z,54.90
2018-03-03T09:10:04.525Z,54.40
2018-03-03T09:11:04.510Z,53.60
2018-03-03T09:12:04.493Z,53.30
2018-03-03T09:13:04.483Z,53.70
2018-03-03T09:14:04.471Z,55.20
2018-03-03T09:15:04.454Z,54.20
2018-03-03T09:16:04.439Z,54.70
2018-03-03T09:17:04.430Z,54.10
2018-03-03T09:18:04.421Z,55.80
2018-03-03T09:19:04.402Z,55.80
2018-03-03T09:20:04.400Z,55.00
2018-03-03T09:21:04.389Z,54.20
2018-03-03T09:22:04.362Z,56.50
2018-03-03T09:23:04.352Z,55.90
2018-03-03T09:24:04.340Z,56.50
2018-03-03T09:25:04.326Z,56.20
2018-03-03T09:26:04.314Z,53.60
2018-03-03T09:27:04.301Z,54.00
2018-03-03T09:28:04.299Z,55.70
2018-03-03T09:29:04.289Z,54.60
2018-03-03T09:30:04.271Z,53.80
2018-03-03T09:31:04.251Z,53.30
2018-03-03T09:32:04.235Z,56.70
2018-03-03T09:33:04.225Z,55.00
2018-03-03T09:34:04.215Z,55.40
2018-03-03T09:35:04.202Z,54.70
2018-03-03T09:36:04.189Z,56.30
2018-03-03T09:37:04.178Z,53.60
2018-03-03T09:38:04.161Z,55.80
2018-03-03T09:39:04.143Z,54.30
2018-03-03T09:40:04.132Z,54.20
2018-03-03T09:41:04.122Z,54.20
2018-03-03T09:42:04.107Z,54.90
2018-03-03T09:43:04.094Z,53.60
2018-03-03T09:44:04.077Z,53.10
2018-03-03T09:45:04.072Z,53.30
2018-03-03T09:46:04.052Z,53.40
2018-03-03T09:47:04.039Z,53.60
2018-03-03T09:48:04.027Z,55.30
2018-03-03T09:49:04.017Z,52.10
2018-03-03T09:50:04.008Z,51.40
2018-03-03T09:51:03.990Z,55.20
2018-03-03T09:52:03.971Z,53.30
2018-03-03T09:53:03.957Z,52.40
2018-03-03T09:54:03.942Z,52.90
2018-03-03T09:55:03.930Z,54.90
2018-03-03T09:56:03.914Z,54.30
2018-03-03T09:57:03.900Z,54.60
2018-03-03T09:58:03.880Z,54.50
2018-03-03T09:59:03.870Z,52.60
2018-03-03T10:00:03.855Z,54.30
2018-03-03T10:01:03.844Z,53.80
2018-03-03T10:02:06.289Z,54.80
2018-03-03T10:03:03.821Z,53.00
2018-03-03T10:04:03.911Z,55.20
2018-03-03T10:05:03.780Z,54.00
2018-03-03T10:06:03.766Z,54.20
2018-03-03T10:07:03.761Z,54.40
2018-03-03T10:08:03.742Z,53.60
2018-03-03T10:09:03.733Z,54.30
2018-03-03T10:10:03.755Z,55.10
2018-03-03T10:11:03.692Z,53.10
2018-03-03T10:12:03.688Z,55.70
2018-03-03T10:13:03.674Z,53.70
2018-03-03T10:14:03.660Z,53.70
2018-03-03T10:15:03.660Z,55.30
2018-03-03T10:16:03.672Z,53.80
2018-03-03T10:17:03.605Z,53.10
2018-03-03T10:18:03.597Z,54.20
2018-03-03T10:19:03.580Z,54.00
2018-03-03T10:20:03.561Z,51.80
2018-03-03T10:21:03.555Z,53.10
2018-03-03T10:22:03.532Z,54.80
2018-03-03T10:23:03.518Z,52.80
2018-03-03T10:24:03.496Z,54.50
2018-03-03T10:25:03.480Z,54.00
2018-03-03T10:26:03.460Z,53.50
2018-03-03T10:27:03.447Z,55.30
2018-03-03T10:28:03.432Z,54.20
2018-03-03T10:29:03.414Z,55.40
2018-03-03T10:30:03.397Z,52.80
2018-03-03T10:31:03.380Z,53.80
2018-03-03T10:32:03.365Z,53.40
2018-03-03T10:33:03.370Z,55.00
2018-03-03T10:34:03.328Z,53.90
2018-03-03T10:35:03.316Z,53.20
2018-03-03T10:36:03.300Z,53.50
2018-03-03T10:37:03.280Z,54.00
2018-03-03T10:38:03.266Z,53.30
2018-03-03T10:39:03.248Z,54.20
2018-03-03T10:40:03.227Z,53.20
2018-03-03T10:41:03.207Z,52.60
2018-03-03T10:42:03.197Z,53.20
2018-03-03T10:43:03.171Z,51.70
2018-03-03T10:44:03.160Z,52.40
2018-03-03T10:45:03.132Z,51.30
2018-03-03T10:46:03.119Z,51.80
2018-03-03T10:47:03.099Z,50.20
2018-03-03T10:48:03.080Z,48.20
2018-03-03T10:49:03.063Z,54.00
2018-03-03T10:50:03.040Z,50.30
2018-03-03T10:51:03.012Z,52.10
2018-03-03T10:52:02.994Z,50.80
2018-03-03T10:53:02.981Z,52.40
2018-03-03T10:54:02.960Z,53.90
2018-03-03T10:55:02.931Z,49.80
2018-03-03T10:56:02.924Z,50.80
2018-03-03T10:57:02.923Z,53.90
2018-03-03T10:58:02.878Z,51.90
2018-03-03T10:59:02.849Z,51.20
2018-03-03T11:00:02.830Z,51.30
2018-03-03T11:01:02.813Z,53.60
2018-03-03T11:02:02.796Z,51.40
2018-03-03T11:03:02.762Z,52.20
2018-03-03T11:04:02.778Z,51.80
2018-03-03T11:05:02.719Z,52.10
2018-03-03T11:06:02.696Z,50.60
2018-03-03T11:07:02.680Z,49.10
2018-03-03T11:08:02.665Z,52.10
2018-03-03T11:09:02.638Z,51.10
2018-03-03T11:10:02.612Z,50.70
2018-03-03T11:11:02.590Z,51.20
2018-03-03T11:12:02.566Z,51.90
2018-03-03T11:13:02.556Z,52.20
2018-03-03T11:14:02.523Z,51.00
2018-03-03T11:15:02.519Z,51.20
2018-03-03T11:16:02.485Z,49.80
2018-03-03T11:17:02.505Z,51.00
2018-03-03T11:18:02.441Z,51.30
2018-03-03T11:19:02.432Z,51.80
2018-03-03T11:20:02.399Z,51.50
2018-03-03T11:21:02.373Z,53.80
2018-03-03T11:22:02.349Z,50.40
2018-03-03T11:23:02.335Z,50.90
2018-03-03T11:24:02.362Z,51.90
2018-03-03T11:25:02.290Z,52.00
2018-03-03T11:26:02.273Z,48.10
2018-03-03T11:27:02.241Z,52.50
2018-03-03T11:28:02.221Z,50.80
2018-03-03T11:29:02.196Z,51.80
2018-03-03T11:30:02.182Z,50.30
2018-03-03T11:31:02.156Z,49.90
2018-03-03T11:32:02.179Z,50.10
2018-03-03T11:33:02.113Z,51.40
2018-03-03T11:34:02.133Z,51.50
2018-03-03T11:35:02.064Z,50.10
2018-03-03T11:36:02.040Z,49.00
2018-03-03T11:37:02.023Z,51.70
2018-03-03T11:38:02.038Z,51.40
2018-03-03T11:39:01.969Z,51.10
2018-03-03T11:40:02.049Z,51.50
2018-03-03T11:41:01.934Z,51.70
2018-03-03T11:42:01.955Z,51.20
2018-03-03T11:43:01.889Z,50.80
2018-03-03T11:44:01.868Z,52.60
2018-03-03T11:45:01.839Z,51.60
2018-03-03T11:46:01.923Z,50.30
2018-03-03T11:47:01.803Z,49.70
2018-03-03T11:48:01.828Z,51.00
2018-03-03T11:49:01.756Z,52.90
2018-03-03T11:50:01.782Z,50.50
2018-03-03T11:51:01.717Z,50.50
2018-03-03T11:52:01.691Z,52.60
2018-03-03T11:53:01.706Z,51.40
2018-03-03T11:54:01.755Z,51.60
2018-03-03T11:55:01.624Z,51.60
2018-03-03T11:56:01.650Z,50.60
2018-03-03T11:57:01.582Z,52.30
2018-03-03T11:58:01.553Z,51.30
2018-03-03T11:59:01.535Z,51.20
2018-03-03T12:00:01.520Z,49.90
2018-03-03T12:01:01.489Z,52.00
2018-03-03T12:02:01.478Z,50.40
2018-03-03T12:03:01.467Z,50.30
2018-03-03T12:04:01.425Z,53.60
2018-03-03T12:05:01.406Z,52.20
2018-03-03T12:06:01.380Z,50.50
2018-03-03T12:07:01.357Z,49.70
2018-03-03T12:08:01.342Z,51.90
2018-03-03T12:09:01.316Z,50.80
2018-03-03T12:10:01.296Z,51.60
2018-03-03T12:11:01.269Z,50.60
2018-03-03T12:12:01.254Z,51.60
2018-03-03T12:13:01.231Z,50.80
2018-03-03T12:14:01.209Z,51.70
2018-03-03T12:15:01.204Z,52.60
2018-03-03T12:16:01.174Z,49.30
2018-03-03T12:17:01.145Z,50.00
2018-03-03T12:18:01.119Z,51.80
2018-03-03T12:19:01.096Z,51.00
2018-03-03T12:20:01.073Z,51.90
2018-03-03T12:21:01.054Z,51.90
2018-03-03T12:22:01.035Z,51.80
2018-03-03T12:23:01.010Z,53.30
2018-03-03T12:24:00.993Z,52.40
2018-03-03T12:25:00.965Z,50.80
2018-03-03T12:26:00.942Z,54.90
2018-03-03T12:27:00.933Z,51.40
2018-03-03T12:28:00.902Z,50.40
2018-03-03T12:29:00.880Z,52.20
2018-03-03T12:30:00.857Z,51.30
2018-03-03T12:31:00.838Z,52.20
2018-03-03T12:32:00.817Z,49.50
2018-03-03T12:33:00.800Z,50.10
2018-03-03T12:34:00.770Z,49.80
2018-03-03T12:35:00.747Z,50.70
2018-03-03T12:36:00.722Z,50.00
2018-03-03T12:37:00.704Z,50.70
2018-03-03T12:38:00.688Z,52.50
2018-03-03T12:39:00.658Z,50.50
2018-03-03T12:40:00.638Z,50.40
2018-03-03T12:41:00.620Z,52.10
2018-03-03T12:42:00.593Z,51.80
2018-03-03T12:43:00.577Z,49.80
2018-03-03T12:44:00.562Z,49.90
2018-03-03T12:45:00.535Z,52.20
2018-03-03T12:46:00.503Z,50.00
2018-03-03T12:47:00.480Z,50.60
2018-03-03T12:48:00.458Z,46.30
2018-03-03T12:49:00.446Z,52.40
2018-03-03T12:50:00.416Z,50.50
2018-03-03T12:51:00.399Z,50.30
2018-03-03T12:52:00.370Z,50.80